Time;durP1;ratioP1;P1;durP2;ratioP2;P2;SDS_P1;SDS_P2;PMS_P1;PMS_P2;Temp;Humidity;BMP_temperature;BMP_pressure;BME280_temperature;BME280_humidity;BME280_pressure;Samples;Min_cycle;Max_cycle;Signal;HPM_P1;HPM_P2
2023/07/06 00:00:46;;;;;;;;;9.75;6.25;;;;;18.66;50.52;101129.25;5069511;27;45417;-67
2023/07/06 00:03:14;;;;;;;;;10.75;9.50;;;;;18.66;50.74;101126.59;5062618;27;45389;-68
2023/07/06 00:05:46;;;;;;;;;10.00;7.00;;;;;18.65;50.75;101124.88;5076211;28;45534;-68
2023/07/06 00:08:13;;;;;;;;;13.75;9.00;;;;;18.64;50.78;101127.59;5062653;27;46005;-68
2023/07/06 00:10:42;;;;;;;;;11.25;9.00;;;;;18.59;50.76;101127.84;5069862;27;45399;-68
2023/07/06 00:13:07;;;;;;;;;11.00;8.00;;;;;18.53;51.23;101129.03;5065820;27;45636;-68
2023/07/06 00:15:36;;;;;;;;;13.25;9.25;;;;;18.46;51.63;101132.97;5074709;28;45382;-68
2023/07/06 00:18:03;;;;;;;;;12.75;10.25;;;;;18.41;51.66;101132.34;5069509;28;45523;-68
2023/07/06 00:20:38;;;;;;;;;11.00;8.50;;;;;18.33;51.90;101132.78;5075778;28;45461;-68
2023/07/06 00:23:08;;;;;;;;;7.25;4.75;;;;;18.30;52.21;101132.94;5051961;28;45677;-68
2023/07/06 00:25:36;;;;;;;;;12.75;8.50;;;;;18.28;52.61;101133.97;5079250;27;48219;-68
2023/07/06 00:28:03;;;;;;;;;10.50;9.50;;;;;18.26;52.62;101141.97;5078418;27;45972;-68
2023/07/06 00:33:28;;;;;;;;;10.00;8.25;;;;;18.21;52.97;101136.06;5036563;27;45619;-68
2023/07/06 00:35:53;;;;;;;;;11.25;8.50;;;;;18.19;53.03;101135.28;5065092;28;45390;-68
2023/07/06 00:38:21;;;;;;;;;8.75;7.25;;;;;18.17;53.25;101134.53;5072916;28;45426;-68
2023/07/06 00:40:49;;;;;;;;;10.25;7.25;;;;;18.10;53.54;101127.84;5075299;28;45540;-68
2023/07/06 00:43:20;;;;;;;;;8.50;8.50;;;;;18.06;53.36;101139.50;5068107;28;45494;-67
2023/07/06 00:45:48;;;;;;;;;12.50;9.50;;;;;18.02;53.57;101138.81;5073025;27;46437;-68
2023/07/06 00:48:20;;;;;;;;;12.25;8.25;;;;;17.99;53.80;101139.84;5073581;28;45711;-68
2023/07/06 00:50:48;;;;;;;;;10.25;7.25;;;;;17.96;53.86;101140.00;5075068;28;45567;-68
2023/07/06 00:53:15;;;;;;;;;8.00;7.00;;;;;17.96;53.94;101145.28;5065282;28;45527;-68
2023/07/06 00:55:40;;;;;;;;;9.25;7.50;;;;;17.92;54.03;101140.22;5052042;28;47164;-68
2023/07/06 00:58:19;;;;;;;;;7.00;5.50;;;;;17.92;53.92;101143.75;5062365;27;45205;-68
2023/07/06 01:00:47;;;;;;;;;7.75;7.00;;;;;17.93;53.75;101150.72;5068297;28;45356;-68
2023/07/06 01:03:13;;;;;;;;;9.75;8.00;;;;;17.91;54.29;101152.59;5075453;28;45342;-68
2023/07/06 01:05:40;;;;;;;;;9.25;7.00;;;;;17.93;54.08;101149.88;5051528;28;75073;-68
2023/07/06 01:08:13;;;;;;;;;10.00;7.75;;;;;17.91;53.74;101149.13;5074480;28;53067;-68
2023/07/06 01:10:39;;;;;;;;;10.00;7.00;;;;;17.89;54.06;101148.34;5068138;28;45532;-68
2023/07/06 01:13:07;;;;;;;;;5.75;5.75;;;;;17.88;54.13;101146.63;5076306;27;45502;-68
2023/07/06 01:15:49;;;;;;;;;6.00;6.00;;;;;17.84;54.45;101153.81;5068591;27;45409;-68
2023/07/06 01:18:22;;;;;;;;;9.75;7.00;;;;;17.83;54.60;101146.84;5068197;28;45535;-68
2023/07/06 01:21:12;;;;;;;;;12.25;7.00;;;;;17.84;54.29;101148.53;5075219;28;45363;-67
2023/07/06 01:23:55;;;;;;;;;8.00;7.00;;;;;17.84;54.77;101145.88;5076038;27;45827;-68
2023/07/06 01:26:43;;;;;;;;;7.50;7.25;;;;;17.83;54.58;101152.97;5065489;27;47674;-67
2023/07/06 01:29:33;;;;;;;;;10.75;7.00;;;;;17.80;54.56;101144.34;5072713;28;45728;-68
2023/07/06 01:32:01;;;;;;;;;7.00;7.00;;;;;17.73;54.42;101143.78;5073672;28;45361;-68
2023/07/06 01:34:44;;;;;;;;;9.25;6.50;;;;;17.73;54.96;101151.72;5072296;28;45298;-68
2023/07/06 01:37:24;;;;;;;;;7.00;6.25;;;;;17.70;55.14;101145.72;5059080;28;46944;-68
2023/07/06 01:39:50;;;;;;;;;11.25;8.00;;;;;17.62;55.27;101131.09;5074533;28;45276;-68
2023/07/06 01:42:26;;;;;;;;;6.75;6.25;;;;;17.65;55.68;101140.66;5074656;27;45488;-68
2023/07/06 01:44:53;;;;;;;;;10.25;8.00;;;;;17.63;55.21;101145.16;5075041;27;45454;-68
2023/07/06 01:47:19;;;;;;;;;7.50;6.50;;;;;17.59;55.59;101136.53;5068401;28;47107;-68
2023/07/06 01:49:45;;;;;;;;;9.50;6.25;;;;;17.54;55.62;101145.63;5071157;28;45320;-68
2023/07/06 01:52:17;;;;;;;;;11.75;8.00;;;;;17.51;55.90;101137.84;5072563;28;45316;-68
2023/07/06 01:55:00;;;;;;;;;10.00;7.75;;;;;17.46;55.55;101135.44;5058690;28;45512;-68
2023/07/06 01:57:31;;;;;;;;;6.50;6.00;;;;;17.46;55.38;101135.44;5068582;28;45423;-76
2023/07/06 02:00:00;;;;;;;;;9.50;6.50;;;;;17.48;55.94;101138.00;5070350;28;45807;-76
2023/07/06 02:02:26;;;;;;;;;9.00;5.75;;;;;17.48;55.79;101138.84;5069438;28;45379;-76
2023/07/06 02:04:52;;;;;;;;;10.25;7.25;;;;;17.47;55.96;101134.50;5066046;28;45483;-75
2023/07/06 02:07:20;;;;;;;;;6.00;6.00;;;;;17.48;55.83;101130.91;5065861;27;45449;-75
2023/07/06 02:09:46;;;;;;;;;8.50;7.50;;;;;17.40;55.83;101118.06;5064328;27;45747;-75
2023/07/06 02:12:15;;;;;;;;;9.25;7.00;;;;;17.44;55.57;101131.97;5077443;28;45304;-75
2023/07/06 02:14:42;;;;;;;;;10.25;7.75;;;;;17.42;56.05;101128.56;5071415;28;45355;-76
2023/07/06 02:17:09;;;;;;;;;9.75;7.50;;;;;17.36;55.60;101113.00;5053241;27;46224;-76
2023/07/06 02:19:35;;;;;;;;;8.00;7.75;;;;;17.38;55.46;101124.38;5071261;27;45317;-76
2023/07/06 02:22:03;;;;;;;;;9.00;8.50;;;;;17.32;55.44;101117.59;5060785;28;45481;-76
2023/07/06 02:24:28;;;;;;;;;10.50;7.75;;;;;17.34;55.63;101120.16;5066672;28;45431;-76
2023/07/06 02:26:54;;;;;;;;;8.00;8.00;;;;;17.31;55.33;101117.66;5074529;27;48989;-76
2023/07/06 02:29:22;;;;;;;;;7.00;7.00;;;;;17.31;55.63;101123.81;5071032;27;46801;-75
2023/07/06 02:31:47;;;;;;;;;14.25;7.00;;;;;17.29;55.79;101116.88;5074434;28;45503;-75
2023/07/06 02:34:14;;;;;;;;;10.00;9.50;;;;;17.30;55.67;101122.09;5073971;27;45472;-75
2023/07/06 02:36:39;;;;;;;;;10.75;10.00;;;;;17.24;56.00;101110.00;5076667;27;45442;-76
2023/07/06 02:39:04;;;;;;;;;11.25;8.75;;;;;17.27;55.79;101117.81;5072945;27;62576;-76
2023/07/06 02:41:30;;;;;;;;;9.75;8.50;;;;;17.27;55.96;101120.44;5078066;27;45480;-76
2023/07/06 02:43:56;;;;;;;;;13.50;10.75;;;;;17.25;55.88;101129.41;5058596;28;45668;-76
2023/07/06 02:46:22;;;;;;;;;12.75;10.75;;;;;17.18;56.05;101122.72;5078720;27;46315;-76
2023/07/06 02:48:50;;;;;;;;;15.25;11.75;;;;;17.22;56.41;101132.19;5071855;27;47331;-76
2023/07/06 02:51:15;;;;;;;;;13.50;9.00;;;;;17.18;56.43;101130.63;5069988;28;45586;-76
2023/07/06 02:53:41;;;;;;;;;11.50;9.00;;;;;17.17;56.85;101137.69;5066274;28;45484;-76
2023/07/06 02:56:07;;;;;;;;;14.00;10.00;;;;;17.15;56.39;101133.44;5076263;28;46738;-76
2023/07/06 02:58:34;;;;;;;;;12.25;9.75;;;;;17.12;56.39;101137.06;5074979;27;45436;-76
2023/07/06 03:00:59;;;;;;;;;10.00;8.00;;;;;17.10;56.71;101138.06;5076615;27;45517;-76
2023/07/06 03:03:26;;;;;;;;;11.25;11.00;;;;;17.07;56.88;101142.59;5077181;27;49870;-76
2023/07/06 03:05:52;;;;;;;;;21.75;16.25;;;;;17.08;56.47;101141.63;5050907;28;48018;-76
2023/07/06 03:08:17;;;;;;;;;21.25;15.25;;;;;17.08;56.53;101139.00;5074677;27;45567;-76
2023/07/06 03:10:46;;;;;;;;;17.00;15.50;;;;;17.09;56.65;101139.88;5070392;27;45419;-76
2023/07/06 03:13:12;;;;;;;;;20.50;16.00;;;;;17.08;56.69;101136.34;5076796;27;45443;-76
2023/07/06 03:15:40;;;;;;;;;15.50;14.50;;;;;17.06;56.22;101129.44;5079623;27;48452;-76
2023/07/06 03:18:06;;;;;;;;;20.50;13.75;;;;;17.06;56.73;101138.22;5067700;27;45410;-76
2023/07/06 03:20:32;;;;;;;;;14.75;13.25;;;;;17.08;56.76;101143.44;5072045;28;45666;-76
2023/07/06 03:22:57;;;;;;;;;15.50;13.00;;;;;17.08;56.59;101139.00;5052862;28;45450;-76
2023/07/06 03:25:25;;;;;;;;;18.00;13.25;;;;;17.10;56.77;101135.44;5057288;27;67332;-76
2023/07/06 03:27:50;;;;;;;;;12.50;12.00;;;;;17.10;56.78;101130.13;5051944;28;45956;-76
2023/07/06 03:30:19;;;;;;;;;13.25;9.75;;;;;17.08;57.06;101130.22;5074805;28;56485;-76
2023/07/06 03:32:44;;;;;;;;;12.75;10.75;;;;;17.12;56.92;101145.00;5065138;27;45378;-75
2023/07/06 03:35:11;;;;;;;;;11.75;9.25;;;;;17.07;56.80;101136.44;5073253;28;68929;-76
2023/07/06 03:37:37;;;;;;;;;11.00;10.00;;;;;17.03;56.89;101140.16;5071639;28;45420;-76
2023/07/06 03:40:05;;;;;;;;;14.25;10.50;;;;;16.98;57.37;101139.50;5062138;27;45281;-75
2023/07/06 03:42:31;;;;;;;;;12.50;8.00;;;;;16.99;57.32;101146.53;5065636;27;45501;-76
2023/07/06 03:44:56;;;;;;;;;9.50;8.75;;;;;16.94;57.35;101144.09;5072197;27;46336;-76
2023/07/06 03:47:27;;;;;;;;;12.50;8.50;;;;;16.92;57.12;101145.09;5079170;27;54300;-76
2023/07/06 03:49:53;;;;;;;;;12.00;8.75;;;;;16.84;57.99;101141.03;5057038;28;45379;-75
2023/07/06 03:52:18;;;;;;;;;10.50;8.75;;;;;16.84;57.60;101138.38;5068166;27;45310;-76
2023/07/06 03:54:46;;;;;;;;;10.50;9.75;;;;;16.85;57.75;101148.00;5081167;27;72382;-76
2023/07/06 03:57:11;;;;;;;;;10.50;10.00;;;;;16.83;57.94;101143.72;5073152;28;45905;-77
2023/07/06 03:59:38;;;;;;;;;9.50;7.50;;;;;16.83;58.22;101139.31;5071178;28;45894;-76
2023/07/06 04:02:07;;;;;;;;;9.75;7.50;;;;;16.81;58.08;101138.47;5046100;28;45523;-76
2023/07/06 04:04:33;;;;;;;;;8.75;8.50;;;;;16.81;58.29;101146.41;5069946;28;45540;-76
2023/07/06 04:06:58;;;;;;;;;12.50;9.75;;;;;16.77;57.95;101144.84;5059397;28;46064;-76
2023/07/06 04:09:25;;;;;;;;;16.00;10.00;;;;;16.74;58.43;101139.69;5072047;27;45248;-76
2023/07/06 04:11:52;;;;;;;;;4.50;4.25;;;;;16.72;58.43;101141.56;5075266;28;46872;-76
2023/07/06 04:14:21;;;;;;;;;9.25;8.00;;;;;16.74;58.54;101146.78;5055069;28;47342;-76
2023/07/06 04:16:46;;;;;;;;;12.00;11.75;;;;;16.73;58.69;101145.91;5070402;28;45418;-76
2023/07/06 04:19:12;;;;;;;;;13.00;9.75;;;;;16.76;59.10;101150.22;5058038;27;45412;-75
2023/07/06 04:21:38;;;;;;;;;12.75;9.00;;;;;16.79;58.42;101153.56;5080072;28;45330;-75
2023/07/06 04:24:04;;;;;;;;;13.50;9.25;;;;;16.77;58.19;101150.13;5074244;27;69298;-75
2023/07/06 04:26:29;;;;;;;;;12.25;7.00;;;;;16.78;58.03;101157.13;5078069;28;45457;-75
2023/07/06 04:28:55;;;;;;;;;15.00;8.00;;;;;16.75;58.05;101151.13;5072611;28;60542;-75
2023/07/06 04:31:20;;;;;;;;;9.00;7.25;;;;;16.74;57.95;101144.13;5076588;27;72134;-75
2023/07/06 04:33:46;;;;;;;;;8.25;5.00;;;;;16.72;57.65;101146.00;5069400;27;45970;-75
2023/07/06 04:36:12;;;;;;;;;8.25;5.75;;;;;16.70;58.34;101143.41;5071205;28;45441;-74
2023/07/06 04:38:37;;;;;;;;;10.50;9.00;;;;;16.70;57.81;101146.06;5057313;28;45522;-75
2023/07/06 04:41:02;;;;;;;;;12.00;8.00;;;;;16.68;58.10;101145.28;5069554;28;59822;-75
2023/07/06 04:43:28;;;;;;;;;11.25;8.25;;;;;16.69;58.37;101153.13;5077056;27;45481;-75
2023/07/06 04:45:55;;;;;;;;;8.75;7.00;;;;;16.69;57.85;101158.41;5073612;27;45480;-75
2023/07/06 04:48:22;;;;;;;;;9.00;6.00;;;;;16.67;58.30;101154.13;5077318;27;45262;-75
2023/07/06 04:50:53;;;;;;;;;8.75;8.25;;;;;16.70;57.83;101164.56;5069157;28;45610;-75
2023/07/06 04:53:20;;;;;;;;;7.50;7.00;;;;;16.67;57.95;101156.78;5059559;28;48393;-75
2023/07/06 04:55:46;;;;;;;;;8.25;6.00;;;;;16.61;58.10;101143.81;5072268;28;45982;-75
2023/07/06 04:58:11;;;;;;;;;9.00;9.00;;;;;16.65;58.52;101156.84;5062504;27;45476;-75
2023/07/06 05:00:39;;;;;;;;;6.75;5.00;;;;;16.66;58.08;101158.56;5074207;28;57595;-77
2023/07/06 05:03:08;;;;;;;;;8.50;7.75;;;;;16.67;58.66;101164.69;5053442;28;47301;-76
2023/07/06 05:05:42;;;;;;;;;9.50;9.00;;;;;16.66;58.71;101157.69;5068544;27;45532;-76
2023/07/06 05:08:10;;;;;;;;;17.75;11.00;;;;;16.68;58.42;101156.69;5062727;28;45484;-76
2023/07/06 05:10:35;;;;;;;;;11.00;8.00;;;;;16.70;58.09;101164.56;5066983;28;45386;-76
2023/07/06 05:13:02;;;;;;;;;15.25;10.25;;;;;16.70;58.78;101168.06;5075406;28;47025;-76
2023/07/06 05:15:28;;;;;;;;;11.00;9.00;;;;;16.70;58.63;101168.06;5074274;28;45929;-77
2023/07/06 05:17:54;;;;;;;;;8.50;7.50;;;;;16.70;58.45;101168.06;5076700;27;63665;-76
2023/07/06 05:20:20;;;;;;;;;9.75;8.75;;;;;16.74;58.24;101170.56;5070084;27;45343;-76
2023/07/06 05:22:48;;;;;;;;;8.00;8.00;;;;;16.76;58.64;101168.72;5058907;28;47024;-76
2023/07/06 05:25:18;;;;;;;;;10.50;10.00;;;;;16.78;58.12;101170.34;5038932;28;45744;-76
2023/07/06 05:27:44;;;;;;;;;8.75;6.75;;;;;16.79;58.29;101173.88;5074649;27;45369;-77
2023/07/06 05:30:09;;;;;;;;;10.25;7.50;;;;;16.78;58.12;101165.06;5075370;28;45580;-77
2023/07/06 05:32:35;;;;;;;;;10.25;9.25;;;;;16.83;57.90;101172.78;5047500;28;47950;-75
2023/07/06 05:35:01;;;;;;;;;8.25;6.00;;;;;16.86;57.41;101167.41;5075016;27;45576;-79
2023/07/06 05:37:26;;;;;;;;;10.50;8.50;;;;;16.84;57.71;101156.88;5079408;27;45272;-81
2023/07/06 05:39:51;;;;;;;;;10.75;8.00;;;;;16.89;57.75;101164.59;5069148;28;69040;-85
2023/07/06 05:42:20;;;;;;;;;10.00;9.00;;;;;16.94;57.80;101167.88;5066892;28;73462;-85
2023/07/06 05:44:45;;;;;;;;;7.75;6.75;;;;;17.01;57.47;101171.09;5070350;28;45915;-85
2023/07/06 05:47:12;;;;;;;;;9.50;8.00;;;;;17.06;57.56;101174.38;5064934;27;45276;-84
2023/07/06 05:49:37;;;;;;;;;7.50;7.00;;;;;17.14;57.56;101174.00;5072063;28;45486;-76
2023/07/06 05:52:04;;;;;;;;;18.25;14.25;;;;;17.17;57.19;101165.94;5068035;27;47072;-76
2023/07/06 05:54:29;;;;;;;;;17.75;14.75;;;;;17.25;57.10;101174.38;5075648;27;45524;-77
2023/07/06 05:56:56;;;;;;;;;9.50;8.75;;;;;17.33;56.89;101180.13;5072970;27;45312;-77
2023/07/06 05:59:24;;;;;;;;;8.25;6.50;;;;;17.39;56.72;101171.91;5088943;27;45575;-77
2023/07/06 06:01:49;;;;;;;;;63.25;47.75;;;;;17.48;56.41;101177.69;5061371;28;47057;-86
2023/07/06 06:04:15;;;;;;;;;15.25;14.50;;;;;17.54;56.67;101180.88;5072641;27;45418;-79
2023/07/06 06:06:48;;;;;;;;;33.25;25.00;;;;;17.63;56.05;101183.06;5064735;28;65980;-76
2023/07/06 06:09:14;;;;;;;;;20.50;13.50;;;;;17.67;56.33;101174.97;5052834;28;45930;-76
2023/07/06 06:11:40;;;;;;;;;9.00;8.00;;;;;17.72;56.07;101178.25;5072650;28;47981;-81
2023/07/06 06:14:05;;;;;;;;;6.75;6.75;;;;;17.75;55.97;101184.25;5073488;27;45449;-82
2023/07/06 06:16:34;;;;;;;;;10.50;7.75;;;;;17.78;55.94;101186.75;5066444;28;45401;-84
2023/07/06 06:19:01;;;;;;;;;6.75;6.00;;;;;17.85;55.93;101187.31;5079743;28;45147;-78
2023/07/06 06:21:27;;;;;;;;;8.00;7.00;;;;;17.91;55.71;101202.06;5082181;28;47145;-75
2023/07/06 06:23:53;;;;;;;;;7.25;7.25;;;;;17.94;55.71;101200.13;5076277;28;45495;-77
2023/07/06 06:26:19;;;;;;;;;8.50;7.00;;;;;17.96;55.50;101194.75;5073657;27;45420;-77
2023/07/06 06:28:44;;;;;;;;;9.75;7.00;;;;;18.02;55.04;101195.31;5075068;27;64006;-79
2023/07/06 06:31:12;;;;;;;;;10.50;7.00;;;;;18.06;54.71;101190.72;5079184;27;45369;-77
2023/07/06 06:33:37;;;;;;;;;8.25;6.75;;;;;18.09;54.87;101195.81;5079681;28;45709;-78
2023/07/06 06:36:03;;;;;;;;;7.00;6.25;;;;;18.16;54.67;101205.16;5078772;27;45342;-74
2023/07/06 06:38:34;;;;;;;;;10.25;7.25;;;;;18.25;54.67;101203.00;5080306;27;45521;-75
2023/07/06 06:41:02;;;;;;;;;8.75;6.00;;;;;18.32;54.45;101192.00;5085585;27;46438;-79
2023/07/06 06:43:27;;;;;;;;;18.25;16.50;;;;;18.45;54.30;101200.19;5076719;27;45492;-77
2023/07/06 06:45:53;;;;;;;;;5.75;5.25;;;;;18.56;54.05;101199.59;5082908;27;45371;-75
2023/07/06 06:48:18;;;;;;;;;6.75;4.50;;;;;18.62;53.73;101198.41;5069894;28;45465;-73
2023/07/06 06:50:45;;;;;;;;;9.00;4.00;;;;;18.69;53.49;101199.78;5074605;27;74534;-76
2023/07/06 06:53:11;;;;;;;;;9.50;4.25;;;;;18.72;53.71;101203.13;5066870;28;45311;-78
2023/07/06 06:55:36;;;;;;;;;3.00;3.00;;;;;18.81;53.03;101206.25;5076048;27;45565;-76
2023/07/06 06:58:03;;;;;;;;;8.00;4.50;;;;;18.86;52.77;101209.53;5061074;28;45541;-77
2023/07/06 07:00:29;;;;;;;;;7.75;5.00;;;;;18.87;52.67;101216.53;5081437;27;46298;-74
2023/07/06 07:02:54;;;;;;;;;5.50;4.25;;;;;18.92;52.60;101217.16;5058681;28;45600;-75
2023/07/06 07:05:20;;;;;;;;;6.25;4.00;;;;;18.94;52.64;101212.63;5082093;27;45339;-76
2023/07/06 07:07:45;;;;;;;;;8.25;4.50;;;;;19.04;52.38;101216.47;5066970;28;45479;-74
2023/07/06 07:10:11;;;;;;;;;27.25;23.75;;;;;19.12;52.28;101218.69;5083338;27;46436;-78
2023/07/06 07:12:40;;;;;;;;;4.50;4.25;;;;;19.18;51.82;101215.72;5084588;27;45334;-79
2023/07/06 07:15:11;;;;;;;;;7.00;5.25;;;;;19.20;51.87;101216.50;5079977;28;45481;-76
2023/07/06 07:17:37;;;;;;;;;8.50;4.25;;;;;19.30;51.36;101214.16;5074900;28;45503;-76
2023/07/06 07:20:03;;;;;;;;;6.50;4.00;;;;;19.39;51.37;101221.63;5080876;27;45781;-76
2023/07/06 07:22:28;;;;;;;;;7.75;4.75;;;;;19.44;51.52;101214.28;5080600;28;45391;-76
2023/07/06 07:24:53;;;;;;;;;5.25;5.00;;;;;19.53;51.19;101213.75;5080527;27;48628;-76
2023/07/06 07:27:19;;;;;;;;;8.25;5.50;;;;;19.60;51.03;101211.59;5070492;28;68154;-80
2023/07/06 07:29:47;;;;;;;;;8.25;4.00;;;;;19.63;50.97;101205.25;5059178;28;47039;-83
2023/07/06 07:32:13;;;;;;;;;3.00;3.00;;;;;19.71;50.72;101210.97;5080215;27;45452;-76
2023/07/06 07:34:38;;;;;;;;;3.50;2.75;;;;;19.72;51.14;101192.31;5074083;27;45592;-78
2023/07/06 07:37:05;;;;;;;;;4.75;4.00;;;;;19.82;50.23;101205.91;5063210;28;45496;-78
2023/07/06 07:39:31;;;;;;;;;8.50;4.25;;;;;19.91;50.43;101207.19;5075770;27;45526;-78
2023/07/06 07:41:56;;;;;;;;;4.50;2.25;;;;;19.98;50.68;101207.69;5080035;27;71519;-78
2023/07/06 07:44:21;;;;;;;;;5.25;3.75;;;;;19.97;49.93;101203.31;5080195;27;52282;-78
2023/07/06 07:46:47;;;;;;;;;4.75;3.00;;;;;20.00;49.99;101196.00;5079992;27;66331;-77
2023/07/06 07:49:12;;;;;;;;;3.50;3.50;;;;;20.08;49.37;101204.38;5078900;27;61718;-78
2023/07/06 07:51:39;;;;;;;;;15.25;11.50;;;;;20.17;49.92;101202.09;5080605;28;45516;-77
2023/07/06 07:54:04;;;;;;;;;17.75;16.50;;;;;20.25;49.33;101205.16;5074671;27;48093;-78
2023/07/06 07:56:30;;;;;;;;;5.75;4.75;;;;;20.27;49.54;101193.53;5074833;28;53738;-78
2023/07/06 07:58:55;;;;;;;;;6.25;5.25;;;;;20.42;49.35;101204.16;5070667;27;45637;-78
2023/07/06 08:01:22;;;;;;;;;3.00;3.00;;;;;20.43;49.13;101193.44;5072852;27;59399;-78
2023/07/06 08:03:48;;;;;;;;;4.75;4.00;;;;;20.45;49.39;101172.06;5071143;27;45536;-78
2023/07/06 08:06:18;;;;;;;;;5.50;3.50;;;;;20.69;48.82;101196.31;5077409;27;45343;-78
2023/07/06 08:08:44;;;;;;;;;6.00;4.75;;;;;20.71;48.73;101181.09;5056342;28;47136;-78
2023/07/06 08:11:12;;;;;;;;;7.00;3.00;;;;;20.74;48.49;101182.75;5059324;28;45414;-78
2023/07/06 08:13:37;;;;;;;;;7.75;5.00;;;;;20.81;48.54;101190.22;5059258;28;45469;-78
2023/07/06 08:16:04;;;;;;;;;9.50;6.25;;;;;20.91;48.48;101189.63;5057885;28;69934;-78
2023/07/06 08:18:31;;;;;;;;;9.00;6.25;;;;;20.99;48.45;101190.88;5074192;27;46599;-78
2023/07/06 08:20:57;;;;;;;;;5.75;5.00;;;;;21.01;48.34;101194.28;5077919;28;45510;-78
2023/07/06 08:23:23;;;;;;;;;7.00;4.75;;;;;20.99;48.03;101174.06;5071648;27;45489;-79
2023/07/06 08:25:51;;;;;;;;;5.00;5.00;;;;;21.10;47.46;101182.19;5058157;28;46054;-79
2023/07/06 08:28:20;;;;;;;;;10.25;7.75;;;;;21.13;47.95;101179.34;5068465;27;47344;-78
2023/07/06 08:30:46;;;;;;;;;5.25;5.00;;;;;21.23;48.11;101179.63;5056489;28;45779;-79
2023/07/06 08:33:13;;;;;;;;;8.25;5.75;;;;;21.24;47.45;101173.31;5078335;27;45525;-79
2023/07/06 08:35:43;;;;;;;;;5.25;5.25;;;;;21.28;47.43;101179.31;5071082;28;45251;-78
2023/07/06 08:38:08;;;;;;;;;7.25;5.75;;;;;21.27;47.55;101166.97;5073270;28;45385;-78
2023/07/06 08:40:35;;;;;;;;;8.25;5.00;;;;;21.31;46.91;101174.63;5064590;27;45407;-79
2023/07/06 08:43:03;;;;;;;;;7.75;6.00;;;;;21.31;47.38;101169.31;5078657;27;45333;-78
2023/07/06 08:45:41;;;;;;;;;5.00;4.00;;;;;21.35;46.60;101167.28;5076858;28;45386;-78
2023/07/06 08:48:13;;;;;;;;;9.00;3.50;;;;;21.46;46.80;101172.81;5074698;28;46392;-78
2023/07/06 08:50:40;;;;;;;;;7.00;3.00;;;;;21.51;46.81;101164.50;5079580;28;45832;-78
2023/07/06 08:53:12;;;;;;;;;2.25;2.00;;;;;21.60;46.96;101180.75;5072174;27;45312;-78
2023/07/06 08:55:38;;;;;;;;;9.00;6.00;;;;;21.68;46.79;101182.88;5061028;27;45563;-78
2023/07/06 08:58:03;;;;;;;;;7.00;4.75;;;;;21.77;46.61;101179.59;5078897;27;54043;-78
2023/07/06 09:00:31;;;;;;;;;6.50;3.00;;;;;21.88;45.41;101184.22;5075967;28;63003;-78
2023/07/06 09:03:07;;;;;;;;;5.25;3.25;;;;;21.97;45.65;101180.94;5079548;27;45553;-78
2023/07/06 09:05:34;;;;;;;;;4.00;3.75;;;;;22.06;45.75;101171.47;5074446;27;45592;-78
2023/07/06 09:08:00;;;;;;;;;25.25;21.25;;;;;22.15;45.03;101180.63;5078095;28;48477;-78
2023/07/06 09:10:28;;;;;;;;;53.50;42.25;;;;;22.20;44.82;101181.16;5055974;28;45489;-78
2023/07/06 09:12:56;;;;;;;;;8.25;6.00;;;;;22.39;45.18;101187.94;5075677;27;45313;-78
2023/07/06 09:15:30;;;;;;;;;5.25;4.25;;;;;22.45;44.51;101175.03;5054702;28;45430;-78
2023/07/06 09:18:02;;;;;;;;;8.00;5.00;;;;;22.66;44.38;101185.97;5077023;27;48266;-78
2023/07/06 09:20:28;;;;;;;;;5.00;3.00;;;;;22.70;44.04;101179.47;5068909;28;45530;-79
2023/07/06 09:22:53;;;;;;;;;4.75;4.00;;;;;22.86;44.30;101183.69;5078698;27;45319;-79
2023/07/06 09:25:38;;;;;;;;;7.00;4.75;;;;;22.99;43.70;101189.03;5076467;28;45412;-78
2023/07/06 09:28:07;;;;;;;;;5.75;4.00;;;;;22.97;43.24;101167.78;5070736;27;45545;-78
2023/07/06 09:30:36;;;;;;;;;3.00;2.25;;;;;23.19;43.13;101185.78;5060477;28;45675;-78
2023/07/06 09:33:24;;;;;;;;;4.25;2.25;;;;;23.26;43.34;101184.34;5063820;28;45355;-79
2023/07/06 09:35:55;;;;;;;;;3.00;3.00;;;;;23.29;42.84;101180.63;5077365;27;45300;-78
2023/07/06 09:38:24;;;;;;;;;10.75;7.00;;;;;23.22;42.62;101171.38;5071239;27;46413;-78
2023/07/06 09:40:49;;;;;;;;;7.75;7.75;;;;;23.31;42.72;101182.19;5075951;27;45634;-78
2023/07/06 09:43:24;;;;;;;;;11.50;8.75;;;;;23.39;42.72;101178.09;5077059;27;45465;-79
2023/07/06 09:45:52;;;;;;;;;9.75;8.75;;;;;23.42;42.20;101185.91;5077254;28;45443;-79
2023/07/06 09:48:37;;;;;;;;;7.75;7.25;;;;;23.55;41.71;101177.81;5079819;27;46072;-78
2023/07/06 09:51:11;;;;;;;;;6.75;2.25;;;;;23.65;42.06;101166.31;5078317;27;45621;-78
2023/07/06 09:54:03;;;;;;;;;7.00;5.75;;;;;23.83;42.40;101172.16;5077785;27;45448;-78
2023/07/06 09:56:29;;;;;;;;;5.00;3.25;;;;;24.02;41.47;101154.69;5068264;28;45365;-79
2023/07/06 09:58:56;;;;;;;;;37.50;31.50;;;;;24.19;41.17;101164.94;5077548;27;47443;-78
2023/07/06 10:01:24;;;;;;;;;7.75;7.25;;;;;24.29;40.11;101164.22;5057391;28;45790;-79
2023/07/06 10:03:58;;;;;;;;;8.00;6.50;;;;;24.41;40.64;101171.28;5072927;27;45536;-79
2023/07/06 10:06:39;;;;;;;;;3.75;3.25;;;;;24.49;40.61;101165.31;5072302;27;45455;-78
2023/07/06 10:09:31;;;;;;;;;12.25;10.00;;;;;24.54;40.19;101171.19;5066495;28;47271;-79
2023/07/06 10:12:06;;;;;;;;;7.25;5.00;;;;;24.50;39.55;101159.84;5072566;27;45893;-78
2023/07/06 10:14:38;;;;;;;;;3.75;3.25;;;;;24.53;39.22;101159.63;5074256;28;46448;-78
2023/07/06 10:17:22;;;;;;;;;6.00;4.25;;;;;24.52;39.81;101167.75;5060770;28;45517;-78
2023/07/06 10:19:59;;;;;;;;;5.00;4.00;;;;;24.48;38.20;101166.28;5072474;28;47669;-77
2023/07/06 10:22:43;;;;;;;;;5.50;3.25;;;;;24.43;38.74;101172.00;5086567;27;45468;-77
2023/07/06 10:25:22;;;;;;;;;3.25;3.25;;;;;24.29;38.81;101151.69;5089256;27;45390;-78
2023/07/06 10:28:13;;;;;;;;;5.25;5.25;;;;;24.25;39.49;101145.72;5078213;27;45221;-78
2023/07/06 10:30:46;;;;;;;;;7.75;4.75;;;;;24.34;39.48;101157.53;5066166;27;47265;-77
2023/07/06 10:33:17;;;;;;;;;27.50;21.50;;;;;24.41;38.76;101155.22;5074104;27;45963;-78
2023/07/06 10:35:45;;;;;;;;;6.00;5.25;;;;;24.34;39.75;101148.66;5068218;27;45494;-78
2023/07/06 10:38:11;;;;;;;;;5.00;3.50;;;;;24.39;39.14;101146.47;5072126;27;45243;-76
2023/07/06 10:40:37;;;;;;;;;5.75;4.00;;;;;24.36;38.94;101158.25;5074626;28;48040;-76
2023/07/06 10:43:13;;;;;;;;;7.50;6.00;;;;;24.39;38.83;101151.81;5050277;28;46543;-77
2023/07/06 10:45:43;;;;;;;;;2.50;2.50;;;;;24.41;38.96;101156.06;5076526;28;45342;-76
2023/07/06 10:48:13;;;;;;;;;6.25;5.75;;;;;24.29;38.54;101140.97;5059532;28;45652;-77
2023/07/06 10:50:46;;;;;;;;;6.00;4.25;;;;;24.39;38.41;101154.50;5074772;28;47147;-77
2023/07/06 10:53:24;;;;;;;;;7.75;4.25;;;;;24.41;37.30;101145.38;5064829;28;45429;-77
2023/07/06 10:56:05;;;;;;;;;4.00;2.50;;;;;24.28;38.62;101125.91;5077649;27;45446;-77
2023/07/06 10:58:33;;;;;;;;;6.00;3.50;;;;;24.50;38.05;101143.78;5066187;27;45529;-77
2023/07/06 11:01:00;;;;;;;;;15.00;13.50;;;;;24.60;37.71;101144.78;5078691;27;46845;-77
2023/07/06 11:03:28;;;;;;;;;5.50;4.00;;;;;24.67;37.69;101137.13;5073115;27;45546;-77
2023/07/06 11:06:06;;;;;;;;;8.50;4.75;;;;;24.80;36.82;101136.97;5081030;28;45464;-77
2023/07/06 11:09:10;;;;;;;;;4.25;3.00;;;;;24.92;37.36;101148.53;5077060;27;45500;-78
2023/07/06 11:12:03;;;;;;;;;5.50;4.75;;;;;24.94;37.59;101138.53;5075568;27;45638;-78
2023/07/06 11:14:38;;;;;;;;;8.00;3.25;;;;;24.94;37.17;101139.38;5074419;27;45793;-78
2023/07/06 11:17:36;;;;;;;;;4.00;2.75;;;;;24.85;37.32;101142.81;5055588;28;45476;-78
2023/07/06 11:20:09;;;;;;;;;5.50;4.25;;;;;24.71;37.23;101135.91;5069215;28;45426;-78
2023/07/06 11:22:36;;;;;;;;;4.75;2.50;;;;;24.58;37.14;101125.34;5068977;28;46358;-78
2023/07/06 11:25:05;;;;;;;;;4.25;3.50;;;;;24.45;37.37;101113.88;5070954;28;45510;-77
2023/07/06 11:27:36;;;;;;;;;7.25;5.25;;;;;24.58;37.18;101135.19;5065851;27;45517;-78
2023/07/06 11:30:34;;;;;;;;;7.50;4.25;;;;;24.57;37.68;101122.78;5076160;27;45515;-77
2023/07/06 11:33:15;;;;;;;;;5.50;5.00;;;;;24.75;37.34;101136.50;5072640;27;46251;-77